sensor_id;sensor_type;location;lat;lon;timestamp;temperature;humidity
7972;DHT22;4031;49.758;6.120;2022-12-16T00:01:21;-9.00;99.90
7972;DHT22;4031;49.758;6.120;2022-12-16T00:03:53;-8.90;99.90
7972;DHT22;4031;49.758;6.120;2022-12-16T00:06:22;-9.00;99.90
7972;DHT22;4031;49.758;6.120;2022-12-16T00:08:49;-9.00;99.90
7972;DHT22;4031;49.758;6.120;2022-12-16T00:11:15;-9.00;99.90
7972;DHT22;4031;49.758;6.120;2022-12-16T00:13:40;-9.00;99.90
7972;DHT22;4031;49.758;6.120;2022-12-16T00:16:09;-9.00;99.90
7972;DHT22;4031;49.758;6.120;2022-12-16T00:18:36;-9.10;99.90
7972;DHT22;4031;49.758;6.120;2022-12-16T00:21:03;-9.10;99.90
7972;DHT22;4031;49.758;6.120;2022-12-16T00:23:29;-9.10;99.90
7972;DHT22;4031;49.758;6.120;2022-12-16T00:25:55;-9.10;99.90
7972;DHT22;4031;49.758;6.120;2022-12-16T00:28:21;-9.10;99.90
7972;DHT22;4031;49.758;6.120;2022-12-16T00:30:48;-9.20;99.90
7972;DHT22;4031;49.758;6.120;2022-12-16T00:33:15;-9.20;99.90
7972;DHT22;4031;49.758;6.120;2022-12-16T00:35:42;-9.20;99.90
7972;DHT22;4031;49.758;6.120;2022-12-16T00:38:08;-9.30;99.90
7972;DHT22;4031;49.758;6.120;2022-12-16T00:40:34;-9.30;99.90
7972;DHT22;4031;49.758;6.120;2022-12-16T00:43:00;-9.30;99.90
7972;DHT22;4031;49.758;6.120;2022-12-16T00:45:26;-9.30;99.90
7972;DHT22;4031;49.758;6.120;2022-12-16T00:47:52;-9.40;99.90
7972;DHT22;4031;49.758;6.120;2022-12-16T00:50:18;-9.40;99.90
7972;DHT22;4031;49.758;6.120;2022-12-16T00:52:45;-9.40;99.90
7972;DHT22;4031;49.758;6.120;2022-12-16T00:55:12;-9.40;99.90
7972;DHT22;4031;49.758;6.120;2022-12-16T00:57:38;-9.50;99.90
7972;DHT22;4031;49.758;6.120;2022-12-16T01:00:05;-9.50;99.90
7972;DHT22;4031;49.758;6.120;2022-12-16T01:02:31;-9.60;99.90
7972;DHT22;4031;49.758;6.120;2022-12-16T01:04:57;-9.60;99.90
7972;DHT22;4031;49.758;6.120;2022-12-16T01:07:23;-9.70;99.90
7972;DHT22;4031;49.758;6.120;2022-12-16T01:09:49;-9.80;99.90
7972;DHT22;4031;49.758;6.120;2022-12-16T01:12:15;-9.80;99.90
7972;DHT22;4031;49.758;6.120;2022-12-16T01:14:40;-9.80;99.90
7972;DHT22;4031;49.758;6.120;2022-12-16T01:17:06;-9.80;99.90
7972;DHT22;4031;49.758;6.120;2022-12-16T01:19:32;-9.90;99.90
7972;DHT22;4031;49.758;6.120;2022-12-16T01:21:57;-9.90;99.90
7972;DHT22;4031;49.758;6.120;2022-12-16T01:24:23;-9.90;99.90
7972;DHT22;4031;49.758;6.120;2022-12-16T01:26:49;-9.90;99.90
7972;DHT22;4031;49.758;6.120;2022-12-16T01:29:15;-10.00;99.90
7972;DHT22;4031;49.758;6.120;2022-12-16T01:31:41;-10.00;99.90
7972;DHT22;4031;49.758;6.120;2022-12-16T01:34:07;-10.00;99.90
7972;DHT22;4031;49.758;6.120;2022-12-16T01:36:33;-9.90;99.90
7972;DHT22;4031;49.758;6.120;2022-12-16T01:38:59;-9.90;99.90
7972;DHT22;4031;49.758;6.120;2022-12-16T01:41:25;-9.80;99.90
7972;DHT22;4031;49.758;6.120;2022-12-16T01:43:51;-9.80;99.90
7972;DHT22;4031;49.758;6.120;2022-12-16T01:46:20;-9.90;99.90
7972;DHT22;4031;49.758;6.120;2022-12-16T01:49:04;-9.90;99.90
7972;DHT22;4031;49.758;6.120;2022-12-16T01:51:35;-9.90;99.90
7972;DHT22;4031;49.758;6.120;2022-12-16T01:54:13;-9.90;99.90
7972;DHT22;4031;49.758;6.120;2022-12-16T01:56:46;-9.90;99.90
7972;DHT22;4031;49.758;6.120;2022-12-16T01:59:17;-10.00;99.90
7972;DHT22;4031;49.758;6.120;2022-12-16T02:01:44;-10.10;99.90
7972;DHT22;4031;49.758;6.120;2022-12-16T02:04:10;-10.10;99.90
7972;DHT22;4031;49.758;6.120;2022-12-16T02:06:36;-10.10;99.90
7972;DHT22;4031;49.758;6.120;2022-12-16T02:09:05;-10.20;99.90
7972;DHT22;4031;49.758;6.120;2022-12-16T02:14:16;-10.20;99.90
7972;DHT22;4031;49.758;6.120;2022-12-16T02:20:24;-10.20;99.90
7972;DHT22;4031;49.758;6.120;2022-12-16T02:40:10;-10.10;99.90
7972;DHT22;4031;49.758;6.120;2022-12-16T02:42:53;-10.10;99.90
7972;DHT22;4031;49.758;6.120;2022-12-16T02:45:25;-10.10;99.90
7972;DHT22;4031;49.758;6.120;2022-12-16T02:47:53;-10.10;99.90
7972;DHT22;4031;49.758;6.120;2022-12-16T02:50:35;-10.10;99.90
7972;DHT22;4031;49.758;6.120;2022-12-16T02:53:05;-10.10;99.90
7972;DHT22;4031;49.758;6.120;2022-12-16T03:01:19;-10.10;99.90
7972;DHT22;4031;49.758;6.120;2022-12-16T03:04:04;-10.00;99.90
7972;DHT22;4031;49.758;6.120;2022-12-16T03:06:35;-10.00;99.90
7972;DHT22;4031;49.758;6.120;2022-12-16T03:09:05;-10.10;99.90
7972;DHT22;4031;49.758;6.120;2022-12-16T03:11:32;-10.10;99.90
7972;DHT22;4031;49.758;6.120;2022-12-16T03:13:59;-10.20;99.90
7972;DHT22;4031;49.758;6.120;2022-12-16T03:16:29;-10.30;99.90
7972;DHT22;4031;49.758;6.120;2022-12-16T03:19:00;-10.30;99.90
7972;DHT22;4031;49.758;6.120;2022-12-16T03:21:33;-10.30;99.90
7972;DHT22;4031;49.758;6.120;2022-12-16T03:24:05;-10.30;99.90
7972;DHT22;4031;49.758;6.120;2022-12-16T03:26:40;-10.30;99.90
7972;DHT22;4031;49.758;6.120;2022-12-16T03:29:40;-10.30;99.90
7972;DHT22;4031;49.758;6.120;2022-12-16T03:32:20;-10.20;99.90
7972;DHT22;4031;49.758;6.120;2022-12-16T03:35:08;-10.10;99.90
7972;DHT22;4031;49.758;6.120;2022-12-16T03:37:40;-10.10;99.90
7972;DHT22;4031;49.758;6.120;2022-12-16T03:40:08;-10.10;99.90
7972;DHT22;4031;49.758;6.120;2022-12-16T03:42:35;-10.20;99.90
7972;DHT22;4031;49.758;6.120;2022-12-16T03:45:03;-10.30;99.90
7972;DHT22;4031;49.758;6.120;2022-12-16T03:47:30;-10.30;99.90
7972;DHT22;4031;49.758;6.120;2022-12-16T03:49:55;-10.30;99.90
7972;DHT22;4031;49.758;6.120;2022-12-16T03:52:21;-10.50;99.90
7972;DHT22;4031;49.758;6.120;2022-12-16T03:54:47;-10.50;99.90
7972;DHT22;4031;49.758;6.120;2022-12-16T03:57:13;-10.60;99.90
7972;DHT22;4031;49.758;6.120;2022-12-16T03:59:38;-10.50;99.90
7972;DHT22;4031;49.758;6.120;2022-12-16T04:02:04;-10.50;99.90
7972;DHT22;4031;49.758;6.120;2022-12-16T04:04:30;-10.50;99.90
7972;DHT22;4031;49.758;6.120;2022-12-16T04:06:55;-10.40;99.90
7972;DHT22;4031;49.758;6.120;2022-12-16T04:09:40;-10.40;99.90
7972;DHT22;4031;49.758;6.120;2022-12-16T04:12:07;-10.40;99.90
7972;DHT22;4031;49.758;6.120;2022-12-16T04:14:52;-10.40;99.90
7972;DHT22;4031;49.758;6.120;2022-12-16T04:17:37;-10.30;99.90
7972;DHT22;4031;49.758;6.120;2022-12-16T04:20:25;-10.30;99.90
7972;DHT22;4031;49.758;6.120;2022-12-16T04:23:13;-10.30;99.90
7972;DHT22;4031;49.758;6.120;2022-12-16T04:25:58;-10.40;99.90
7972;DHT22;4031;49.758;6.120;2022-12-16T04:28:23;-10.40;99.90
7972;DHT22;4031;49.758;6.120;2022-12-16T04:30:49;-10.40;99.90
7972;DHT22;4031;49.758;6.120;2022-12-16T04:33:15;-10.40;99.90
7972;DHT22;4031;49.758;6.120;2022-12-16T04:36:16;-10.40;99.90
7972;DHT22;4031;49.758;6.120;2022-12-16T04:39:01;-10.40;99.90
7972;DHT22;4031;49.758;6.120;2022-12-16T04:41:45;-10.40;99.90
7972;DHT22;4031;49.758;6.120;2022-12-16T04:44:29;-10.40;99.90
7972;DHT22;4031;49.758;6.120;2022-12-16T04:47:14;-10.40;99.90
7972;DHT22;4031;49.758;6.120;2022-12-16T04:49:58;-10.40;99.90
7972;DHT22;4031;49.758;6.120;2022-12-16T04:52:42;-10.30;99.90
7972;DHT22;4031;49.758;6.120;2022-12-16T04:55:27;-10.40;99.90
7972;DHT22;4031;49.758;6.120;2022-12-16T04:58:11;-10.50;99.90
7972;DHT22;4031;49.758;6.120;2022-12-16T05:00:57;-10.60;99.90
7972;DHT22;4031;49.758;6.120;2022-12-16T05:03:41;-10.60;99.90
7972;DHT22;4031;49.758;6.120;2022-12-16T05:06:26;-10.70;99.90
7972;DHT22;4031;49.758;6.120;2022-12-16T05:09:10;-10.80;99.90
7972;DHT22;4031;49.758;6.120;2022-12-16T05:11:54;-10.90;99.90
7972;DHT22;4031;49.758;6.120;2022-12-16T05:14:39;-11.00;99.90
7972;DHT22;4031;49.758;6.120;2022-12-16T05:17:23;-11.10;99.90
7972;DHT22;4031;49.758;6.120;2022-12-16T05:20:07;-11.00;99.90
7972;DHT22;4031;49.758;6.120;2022-12-16T05:22:54;-11.10;99.90
7972;DHT22;4031;49.758;6.120;2022-12-16T05:25:40;-11.20;99.90
7972;DHT22;4031;49.758;6.120;2022-12-16T05:28:24;-11.20;99.90
7972;DHT22;4031;49.758;6.120;2022-12-16T05:31:08;-11.20;99.90
7972;DHT22;4031;49.758;6.120;2022-12-16T05:33:53;-11.30;99.90
7972;DHT22;4031;49.758;6.120;2022-12-16T05:36:37;-11.00;99.90
7972;DHT22;4031;49.758;6.120;2022-12-16T05:39:21;-10.90;99.90
7972;DHT22;4031;49.758;6.120;2022-12-16T05:42:06;-10.90;99.90
7972;DHT22;4031;49.758;6.120;2022-12-16T05:44:51;-11.00;99.90
7972;DHT22;4031;49.758;6.120;2022-12-16T05:47:35;-11.00;99.90
7972;DHT22;4031;49.758;6.120;2022-12-16T05:50:20;-11.00;99.90
7972;DHT22;4031;49.758;6.120;2022-12-16T05:53:04;-11.10;99.90
7972;DHT22;4031;49.758;6.120;2022-12-16T05:55:48;-11.20;99.90
7972;DHT22;4031;49.758;6.120;2022-12-16T05:58:33;-11.20;99.90
7972;DHT22;4031;49.758;6.120;2022-12-16T06:01:17;-11.20;99.90
7972;DHT22;4031;49.758;6.120;2022-12-16T06:04:01;-11.20;99.90
7972;DHT22;4031;49.758;6.120;2022-12-16T06:06:46;-11.20;99.90
7972;DHT22;4031;49.758;6.120;2022-12-16T06:09:30;-11.20;99.90
7972;DHT22;4031;49.758;6.120;2022-12-16T06:12:14;-11.20;99.90
7972;DHT22;4031;49.758;6.120;2022-12-16T06:14:59;-11.20;99.90
7972;DHT22;4031;49.758;6.120;2022-12-16T06:17:48;-11.20;99.90
7972;DHT22;4031;49.758;6.120;2022-12-16T06:20:34;-11.20;99.90
7972;DHT22;4031;49.758;6.120;2022-12-16T06:23:18;-11.20;99.90
7972;DHT22;4031;49.758;6.120;2022-12-16T06:26:03;-11.10;99.90
7972;DHT22;4031;49.758;6.120;2022-12-16T06:28:48;-11.10;99.90
7972;DHT22;4031;49.758;6.120;2022-12-16T06:31:32;-11.10;99.90
7972;DHT22;4031;49.758;6.120;2022-12-16T06:34:16;-11.20;99.90
7972;DHT22;4031;49.758;6.120;2022-12-16T06:37:00;-11.20;99.90
7972;DHT22;4031;49.758;6.120;2022-12-16T06:39:45;-11.20;99.90
7972;DHT22;4031;49.758;6.120;2022-12-16T06:42:29;-11.20;99.90
7972;DHT22;4031;49.758;6.120;2022-12-16T06:45:14;-11.00;99.90
7972;DHT22;4031;49.758;6.120;2022-12-16T06:47:58;-11.10;99.90
7972;DHT22;4031;49.758;6.120;2022-12-16T06:50:43;-11.10;99.90
7972;DHT22;4031;49.758;6.120;2022-12-16T06:53:27;-10.90;99.90
7972;DHT22;4031;49.758;6.120;2022-12-16T06:56:12;-10.80;99.90
7972;DHT22;4031;49.758;6.120;2022-12-16T06:58:56;-10.70;99.90
7972;DHT22;4031;49.758;6.120;2022-12-16T07:01:41;-10.70;99.90
7972;DHT22;4031;49.758;6.120;2022-12-16T07:04:42;-10.80;99.90
7972;DHT22;4031;49.758;6.120;2022-12-16T07:07:26;-10.80;99.90
7972;DHT22;4031;49.758;6.120;2022-12-16T07:10:24;-10.80;99.90
7972;DHT22;4031;49.758;6.120;2022-12-16T07:13:08;-10.90;99.90
7972;DHT22;4031;49.758;6.120;2022-12-16T07:15:52;-11.00;99.90
7972;DHT22;4031;49.758;6.120;2022-12-16T07:18:37;-11.00;99.90
7972;DHT22;4031;49.758;6.120;2022-12-16T07:21:21;-11.10;99.90
7972;DHT22;4031;49.758;6.120;2022-12-16T07:24:05;-11.20;99.90
7972;DHT22;4031;49.758;6.120;2022-12-16T07:26:50;-11.20;99.90
7972;DHT22;4031;49.758;6.120;2022-12-16T07:29:34;-11.20;99.90
7972;DHT22;4031;49.758;6.120;2022-12-16T07:32:18;-11.20;99.90
7972;DHT22;4031;49.758;6.120;2022-12-16T07:35:03;-11.20;99.90
7972;DHT22;4031;49.758;6.120;2022-12-16T07:37:47;-11.10;99.90
7972;DHT22;4031;49.758;6.120;2022-12-16T07:40:32;-11.10;99.90
7972;DHT22;4031;49.758;6.120;2022-12-16T07:43:16;-11.10;99.90
7972;DHT22;4031;49.758;6.120;2022-12-16T07:46:00;-11.10;99.90
7972;DHT22;4031;49.758;6.120;2022-12-16T07:48:44;-11.10;99.90
7972;DHT22;4031;49.758;6.120;2022-12-16T07:51:28;-11.10;99.90
7972;DHT22;4031;49.758;6.120;2022-12-16T07:54:13;-11.10;99.90
7972;DHT22;4031;49.758;6.120;2022-12-16T07:56:57;-11.10;99.90
7972;DHT22;4031;49.758;6.120;2022-12-16T07:59:41;-11.10;99.90
7972;DHT22;4031;49.758;6.120;2022-12-16T08:02:25;-11.10;99.90
7972;DHT22;4031;49.758;6.120;2022-12-16T08:05:10;-11.00;99.90
7972;DHT22;4031;49.758;6.120;2022-12-16T08:07:54;-11.10;99.90
7972;DHT22;4031;49.758;6.120;2022-12-16T08:10:38;-11.10;99.90
7972;DHT22;4031;49.758;6.120;2022-12-16T08:13:22;-11.10;99.90
7972;DHT22;4031;49.758;6.120;2022-12-16T08:16:07;-11.00;99.90
7972;DHT22;4031;49.758;6.120;2022-12-16T08:18:51;-10.90;99.90
7972;DHT22;4031;49.758;6.120;2022-12-16T08:21:35;-10.90;99.90
7972;DHT22;4031;49.758;6.120;2022-12-16T08:24:20;-10.80;99.90
7972;DHT22;4031;49.758;6.120;2022-12-16T08:27:04;-10.80;99.90
7972;DHT22;4031;49.758;6.120;2022-12-16T08:29:48;-10.80;99.90
7972;DHT22;4031;49.758;6.120;2022-12-16T08:32:33;-10.80;99.90
7972;DHT22;4031;49.758;6.120;2022-12-16T08:35:17;-10.80;99.90
7972;DHT22;4031;49.758;6.120;2022-12-16T08:38:01;-10.70;99.90
7972;DHT22;4031;49.758;6.120;2022-12-16T08:40:46;-10.70;99.90
7972;DHT22;4031;49.758;6.120;2022-12-16T08:43:32;-10.70;99.90
7972;DHT22;4031;49.758;6.120;2022-12-16T08:46:17;-10.50;99.90
7972;DHT22;4031;49.758;6.120;2022-12-16T08:49:03;-10.50;99.90
7972;DHT22;4031;49.758;6.120;2022-12-16T08:51:47;-10.40;99.90
7972;DHT22;4031;49.758;6.120;2022-12-16T08:54:32;-10.40;99.90
7972;DHT22;4031;49.758;6.120;2022-12-16T08:57:17;-10.30;99.90
7972;DHT22;4031;49.758;6.120;2022-12-16T09:00:04;-10.10;99.90
7972;DHT22;4031;49.758;6.120;2022-12-16T09:02:55;-10.00;99.90
7972;DHT22;4031;49.758;6.120;2022-12-16T09:05:40;-9.80;99.90
7972;DHT22;4031;49.758;6.120;2022-12-16T09:08:24;-9.70;99.90
7972;DHT22;4031;49.758;6.120;2022-12-16T09:11:09;-9.60;99.90
7972;DHT22;4031;49.758;6.120;2022-12-16T09:13:53;-9.40;99.90
7972;DHT22;4031;49.758;6.120;2022-12-16T09:16:37;-9.40;99.90
7972;DHT22;4031;49.758;6.120;2022-12-16T09:19:21;-9.40;99.90
7972;DHT22;4031;49.758;6.120;2022-12-16T09:22:06;-9.40;99.90
7972;DHT22;4031;49.758;6.120;2022-12-16T09:24:50;-9.40;99.90
7972;DHT22;4031;49.758;6.120;2022-12-16T09:27:34;-9.30;99.90
7972;DHT22;4031;49.758;6.120;2022-12-16T09:30:18;-9.20;99.90
7972;DHT22;4031;49.758;6.120;2022-12-16T09:33:03;-9.20;99.90
7972;DHT22;4031;49.758;6.120;2022-12-16T09:35:47;-9.10;99.90
7972;DHT22;4031;49.758;6.120;2022-12-16T09:38:32;-9.10;99.90
7972;DHT22;4031;49.758;6.120;2022-12-16T09:41:43;-9.00;99.90
7972;DHT22;4031;49.758;6.120;2022-12-16T09:44:41;-8.90;99.90
7972;DHT22;4031;49.758;6.120;2022-12-16T09:50:52;-8.50;99.90
7972;DHT22;4031;49.758;6.120;2022-12-16T09:53:39;-8.10;99.90
7972;DHT22;4031;49.758;6.120;2022-12-16T09:56:29;-7.70;99.90
7972;DHT22;4031;49.758;6.120;2022-12-16T09:59:21;-7.20;99.90
7972;DHT22;4031;49.758;6.120;2022-12-16T10:02:13;-6.70;99.90
7972;DHT22;4031;49.758;6.120;2022-12-16T10:04:59;-6.00;99.90
7972;DHT22;4031;49.758;6.120;2022-12-16T10:07:53;-5.30;99.90
7972;DHT22;4031;49.758;6.120;2022-12-16T10:11:11;-4.60;99.90
7972;DHT22;4031;49.758;6.120;2022-12-16T10:14:08;-4.00;99.90
7972;DHT22;4031;49.758;6.120;2022-12-16T10:17:23;-3.50;99.90
7972;DHT22;4031;49.758;6.120;2022-12-16T10:20:19;-3.10;99.90
7972;DHT22;4031;49.758;6.120;2022-12-16T10:27:05;-2.40;99.90
7972;DHT22;4031;49.758;6.120;2022-12-16T10:30:02;-2.10;99.90
7972;DHT22;4031;49.758;6.120;2022-12-16T10:32:50;-1.50;99.90
7972;DHT22;4031;49.758;6.120;2022-12-16T10:35:46;-1.20;99.90
7972;DHT22;4031;49.758;6.120;2022-12-16T10:38:56;-0.80;99.90
7972;DHT22;4031;49.758;6.120;2022-12-16T10:41:47;-0.30;99.90
7972;DHT22;4031;49.758;6.120;2022-12-16T10:44:54;-0.10;99.90
7972;DHT22;4031;49.758;6.120;2022-12-16T10:47:39;0.10;99.90
7972;DHT22;4031;49.758;6.120;2022-12-16T10:50:23;0.10;99.90
7972;DHT22;4031;49.758;6.120;2022-12-16T10:53:17;0.50;99.90
7972;DHT22;4031;49.758;6.120;2022-12-16T10:59:37;1.60;99.90
7972;DHT22;4031;49.758;6.120;2022-12-16T11:02:24;2.20;99.90
7972;DHT22;4031;49.758;6.120;2022-12-16T11:11:27;3.70;99.90
7972;DHT22;4031;49.758;6.120;2022-12-16T11:14:24;4.20;99.90
7972;DHT22;4031;49.758;6.120;2022-12-16T11:17:12;4.50;99.90
7972;DHT22;4031;49.758;6.120;2022-12-16T11:29:17;5.80;99.90
7972;DHT22;4031;49.758;6.120;2022-12-16T11:34:57;7.90;99.90
7972;DHT22;4031;49.758;6.120;2022-12-16T11:37:43;8.90;99.90
7972;DHT22;4031;49.758;6.120;2022-12-16T11:40:29;9.80;99.90
7972;DHT22;4031;49.758;6.120;2022-12-16T11:43:16;10.30;99.90
7972;DHT22;4031;49.758;6.120;2022-12-16T11:46:10;10.70;99.90
7972;DHT22;4031;49.758;6.120;2022-12-16T11:49:06;10.40;99.90
7972;DHT22;4031;49.758;6.120;2022-12-16T11:52:03;10.20;99.90
7972;DHT22;4031;49.758;6.120;2022-12-16T11:55:27;9.90;99.90
7972;DHT22;4031;49.758;6.120;2022-12-16T11:58:24;9.70;99.90
7972;DHT22;4031;49.758;6.120;2022-12-16T12:01:46;9.40;99.90
7972;DHT22;4031;49.758;6.120;2022-12-16T12:04:28;9.40;99.90
7972;DHT22;4031;49.758;6.120;2022-12-16T12:07:56;8.90;99.90
7972;DHT22;4031;49.758;6.120;2022-12-16T12:11:23;8.20;99.90
7972;DHT22;4031;49.758;6.120;2022-12-16T12:14:31;7.30;99.90
7972;DHT22;4031;49.758;6.120;2022-12-16T12:17:39;6.90;99.90
7972;DHT22;4031;49.758;6.120;2022-12-16T12:26:43;5.50;99.90
7972;DHT22;4031;49.758;6.120;2022-12-16T12:35:59;5.70;99.90
7972;DHT22;4031;49.758;6.120;2022-12-16T12:52:11;3.40;99.90
7972;DHT22;4031;49.758;6.120;2022-12-16T12:55:16;3.30;99.90
7972;DHT22;4031;49.758;6.120;2022-12-16T12:58:05;3.30;99.90
7972;DHT22;4031;49.758;6.120;2022-12-16T13:00:52;3.20;99.90
7972;DHT22;4031;49.758;6.120;2022-12-16T13:03:55;3.10;99.90
7972;DHT22;4031;49.758;6.120;2022-12-16T13:06:45;3.20;99.90
7972;DHT22;4031;49.758;6.120;2022-12-16T13:15:05;3.00;99.90
7972;DHT22;4031;49.758;6.120;2022-12-16T13:20:50;3.00;99.90
7972;DHT22;4031;49.758;6.120;2022-12-16T13:23:38;3.20;99.90
7972;DHT22;4031;49.758;6.120;2022-12-16T13:26:25;3.30;99.90
7972;DHT22;4031;49.758;6.120;2022-12-16T13:37:57;3.60;99.90
7972;DHT22;4031;49.758;6.120;2022-12-16T13:40:55;3.60;99.90
7972;DHT22;4031;49.758;6.120;2022-12-16T13:43:57;3.50;99.90
7972;DHT22;4031;49.758;6.120;2022-12-16T13:46:50;3.50;99.90
7972;DHT22;4031;49.758;6.120;2022-12-16T13:55:38;3.20;99.90
7972;DHT22;4031;49.758;6.120;2022-12-16T13:58:49;3.20;99.90
7972;DHT22;4031;49.758;6.120;2022-12-16T14:01:56;3.10;99.90
7972;DHT22;4031;49.758;6.120;2022-12-16T14:04:47;3.00;99.90
7972;DHT22;4031;49.758;6.120;2022-12-16T14:07:37;3.00;99.90
7972;DHT22;4031;49.758;6.120;2022-12-16T14:10:25;2.90;99.90
7972;DHT22;4031;49.758;6.120;2022-12-16T14:16:54;3.20;99.90
7972;DHT22;4031;49.758;6.120;2022-12-16T14:20:05;3.40;99.90
7972;DHT22;4031;49.758;6.120;2022-12-16T14:23:34;3.70;99.90
7972;DHT22;4031;49.758;6.120;2022-12-16T14:26:23;4.00;99.90
7972;DHT22;4031;49.758;6.120;2022-12-16T14:29:24;4.10;99.90
7972;DHT22;4031;49.758;6.120;2022-12-16T14:35:19;3.10;99.90
7972;DHT22;4031;49.758;6.120;2022-12-16T14:38:26;2.60;99.90
7972;DHT22;4031;49.758;6.120;2022-12-16T14:41:30;2.50;99.90
7972;DHT22;4031;49.758;6.120;2022-12-16T14:44:21;2.70;99.90
7972;DHT22;4031;49.758;6.120;2022-12-16T14:47:15;2.70;99.90
7972;DHT22;4031;49.758;6.120;2022-12-16T14:50:02;2.50;99.90
7972;DHT22;4031;49.758;6.120;2022-12-16T14:52:46;2.10;99.90
7972;DHT22;4031;49.758;6.120;2022-12-16T14:55:34;1.50;99.90
7972;DHT22;4031;49.758;6.120;2022-12-16T14:58:22;0.90;99.90
7972;DHT22;4031;49.758;6.120;2022-12-16T15:04:25;0.00;99.90
7972;DHT22;4031;49.758;6.120;2022-12-16T15:07:11;-0.40;99.90
7972;DHT22;4031;49.758;6.120;2022-12-16T15:09:58;-0.70;99.90
7972;DHT22;4031;49.758;6.120;2022-12-16T15:12:45;-1.00;99.90
7972;DHT22;4031;49.758;6.120;2022-12-16T15:15:49;-1.20;99.90
7972;DHT22;4031;49.758;6.120;2022-12-16T15:18:38;-1.50;99.90
7972;DHT22;4031;49.758;6.120;2022-12-16T15:21:24;-1.70;99.90
7972;DHT22;4031;49.758;6.120;2022-12-16T15:24:22;-2.00;99.90
7972;DHT22;4031;49.758;6.120;2022-12-16T15:33:17;-2.70;99.90
7972;DHT22;4031;49.758;6.120;2022-12-16T15:36:03;-2.90;99.90
7972;DHT22;4031;49.758;6.120;2022-12-16T15:38:49;-3.10;99.90
7972;DHT22;4031;49.758;6.120;2022-12-16T15:41:35;-3.30;99.90
7972;DHT22;4031;49.758;6.120;2022-12-16T15:44:24;-3.40;99.90
7972;DHT22;4031;49.758;6.120;2022-12-16T15:47:25;-3.60;99.90
7972;DHT22;4031;49.758;6.120;2022-12-16T15:50:14;-3.80;99.90
7972;DHT22;4031;49.758;6.120;2022-12-16T15:53:32;-3.90;99.90
7972;DHT22;4031;49.758;6.120;2022-12-16T15:59:35;-4.20;99.90
7972;DHT22;4031;49.758;6.120;2022-12-16T16:02:29;-4.20;99.90
7972;DHT22;4031;49.758;6.120;2022-12-16T16:05:18;-4.30;99.90
7972;DHT22;4031;49.758;6.120;2022-12-16T16:08:04;-4.40;99.90
7972;DHT22;4031;49.758;6.120;2022-12-16T16:10:48;-4.50;99.90
7972;DHT22;4031;49.758;6.120;2022-12-16T16:13:32;-4.50;99.90
7972;DHT22;4031;49.758;6.120;2022-12-16T16:16:17;-4.60;99.90
7972;DHT22;4031;49.758;6.120;2022-12-16T16:19:01;-4.70;99.90
7972;DHT22;4031;49.758;6.120;2022-12-16T16:21:46;-4.80;99.90
7972;DHT22;4031;49.758;6.120;2022-12-16T16:24:30;-5.00;99.90
7972;DHT22;4031;49.758;6.120;2022-12-16T16:27:15;-5.00;99.90
7972;DHT22;4031;49.758;6.120;2022-12-16T16:30:01;-5.10;99.90
7972;DHT22;4031;49.758;6.120;2022-12-16T16:32:46;-5.20;99.90
7972;DHT22;4031;49.758;6.120;2022-12-16T16:35:31;-5.30;99.90
7972;DHT22;4031;49.758;6.120;2022-12-16T16:38:16;-5.40;99.90
7972;DHT22;4031;49.758;6.120;2022-12-16T16:41:01;-5.40;99.90
7972;DHT22;4031;49.758;6.120;2022-12-16T16:43:45;-5.50;99.90
7972;DHT22;4031;49.758;6.120;2022-12-16T16:46:37;-5.50;99.90
7972;DHT22;4031;49.758;6.120;2022-12-16T16:49:28;-5.60;99.90
7972;DHT22;4031;49.758;6.120;2022-12-16T16:52:17;-5.80;99.90
7972;DHT22;4031;49.758;6.120;2022-12-16T16:55:04;-5.90;99.90
7972;DHT22;4031;49.758;6.120;2022-12-16T16:57:49;-5.80;99.90
7972;DHT22;4031;49.758;6.120;2022-12-16T17:00:33;-5.90;99.90
7972;DHT22;4031;49.758;6.120;2022-12-16T17:03:18;-5.90;99.90
7972;DHT22;4031;49.758;6.120;2022-12-16T17:06:02;-5.90;99.90
7972;DHT22;4031;49.758;6.120;2022-12-16T17:08:46;-6.00;99.90
7972;DHT22;4031;49.758;6.120;2022-12-16T17:11:32;-6.00;99.90
7972;DHT22;4031;49.758;6.120;2022-12-16T17:14:17;-6.10;99.90
7972;DHT22;4031;49.758;6.120;2022-12-16T17:17:04;-6.10;99.90
7972;DHT22;4031;49.758;6.120;2022-12-16T17:19:49;-6.10;99.90
7972;DHT22;4031;49.758;6.120;2022-12-16T17:22:35;-6.20;99.90
7972;DHT22;4031;49.758;6.120;2022-12-16T17:25:19;-6.20;99.90
7972;DHT22;4031;49.758;6.120;2022-12-16T17:28:04;-6.10;99.90
7972;DHT22;4031;49.758;6.120;2022-12-16T17:30:48;-5.90;99.90
7972;DHT22;4031;49.758;6.120;2022-12-16T17:33:33;-6.00;99.90
7972;DHT22;4031;49.758;6.120;2022-12-16T17:36:17;-6.00;99.90
7972;DHT22;4031;49.758;6.120;2022-12-16T17:39:03;-6.10;99.90
7972;DHT22;4031;49.758;6.120;2022-12-16T17:41:47;-6.20;99.90
7972;DHT22;4031;49.758;6.120;2022-12-16T17:44:32;-6.20;99.90
7972;DHT22;4031;49.758;6.120;2022-12-16T17:47:17;-6.30;99.90
7972;DHT22;4031;49.758;6.120;2022-12-16T17:50:01;-6.40;99.90
7972;DHT22;4031;49.758;6.120;2022-12-16T17:52:46;-6.30;99.90
7972;DHT22;4031;49.758;6.120;2022-12-16T17:55:32;-6.40;99.90
7972;DHT22;4031;49.758;6.120;2022-12-16T17:58:16;-6.50;99.90
7972;DHT22;4031;49.758;6.120;2022-12-16T18:01:02;-6.50;99.90
7972;DHT22;4031;49.758;6.120;2022-12-16T18:04:06;-6.50;99.90
7972;DHT22;4031;49.758;6.120;2022-12-16T18:06:51;-6.50;99.90
7972;DHT22;4031;49.758;6.120;2022-12-16T18:09:35;-6.60;99.90
7972;DHT22;4031;49.758;6.120;2022-12-16T18:12:20;-6.70;99.90
7972;DHT22;4031;49.758;6.120;2022-12-16T18:15:05;-6.80;99.90
7972;DHT22;4031;49.758;6.120;2022-12-16T18:17:50;-6.80;99.90
7972;DHT22;4031;49.758;6.120;2022-12-16T18:20:35;-6.90;99.90
7972;DHT22;4031;49.758;6.120;2022-12-16T18:23:19;-6.90;99.90
7972;DHT22;4031;49.758;6.120;2022-12-16T18:26:06;-7.00;99.90
7972;DHT22;4031;49.758;6.120;2022-12-16T18:28:51;-7.00;99.90
7972;DHT22;4031;49.758;6.120;2022-12-16T18:31:36;-7.00;99.90
7972;DHT22;4031;49.758;6.120;2022-12-16T18:34:20;-7.00;99.90
7972;DHT22;4031;49.758;6.120;2022-12-16T18:37:05;-7.10;99.90
7972;DHT22;4031;49.758;6.120;2022-12-16T18:39:50;-7.10;99.90
7972;DHT22;4031;49.758;6.120;2022-12-16T18:42:35;-7.10;99.90
7972;DHT22;4031;49.758;6.120;2022-12-16T18:45:19;-7.20;99.90
7972;DHT22;4031;49.758;6.120;2022-12-16T18:48:03;-7.20;99.90
7972;DHT22;4031;49.758;6.120;2022-12-16T18:50:55;-7.30;99.90
7972;DHT22;4031;49.758;6.120;2022-12-16T18:53:40;-7.40;99.90
7972;DHT22;4031;49.758;6.120;2022-12-16T18:56:25;-7.40;99.90
7972;DHT22;4031;49.758;6.120;2022-12-16T18:59:10;-7.40;99.90
7972;DHT22;4031;49.758;6.120;2022-12-16T19:01:54;-7.40;99.90
7972;DHT22;4031;49.758;6.120;2022-12-16T19:04:38;-7.50;99.90
7972;DHT22;4031;49.758;6.120;2022-12-16T19:07:22;-7.40;99.90
7972;DHT22;4031;49.758;6.120;2022-12-16T19:10:07;-7.30;99.90
7972;DHT22;4031;49.758;6.120;2022-12-16T19:12:58;-7.10;99.90
7972;DHT22;4031;49.758;6.120;2022-12-16T19:15:55;-7.20;99.90
7972;DHT22;4031;49.758;6.120;2022-12-16T19:18:40;-7.20;99.90
7972;DHT22;4031;49.758;6.120;2022-12-16T19:21:25;-7.30;99.90
7972;DHT22;4031;49.758;6.120;2022-12-16T19:24:10;-7.40;99.90
7972;DHT22;4031;49.758;6.120;2022-12-16T19:26:54;-7.40;99.90
7972;DHT22;4031;49.758;6.120;2022-12-16T19:29:38;-7.50;99.90
7972;DHT22;4031;49.758;6.120;2022-12-16T19:32:22;-7.50;99.90
7972;DHT22;4031;49.758;6.120;2022-12-16T19:35:07;-7.60;99.90
7972;DHT22;4031;49.758;6.120;2022-12-16T19:37:51;-7.70;99.90
7972;DHT22;4031;49.758;6.120;2022-12-16T19:40:35;-7.80;99.90
7972;DHT22;4031;49.758;6.120;2022-12-16T19:43:19;-7.90;99.90
7972;DHT22;4031;49.758;6.120;2022-12-16T19:46:04;-7.90;99.90
7972;DHT22;4031;49.758;6.120;2022-12-16T19:48:49;-8.00;99.90
7972;DHT22;4031;49.758;6.120;2022-12-16T19:51:33;-8.00;99.90